This is the latest recevied weather packets stored in our database for station/object KJ5EHN. If no packets are shown the sender has not sent any weather packets the latest 1 day(s).
| Time | Temp. | Humidity | Pressure | Rain* | Wind** | Luminosity | Snow |
|---|---|---|---|---|---|---|---|
| 1778013872 | 30.56° C | 59% | 1004.4 hPa | 0 mm | 2.24 m/s, 315° | - | - |
| 1778013569 | 30.56° C | 59% | 1004 hPa | 0 mm | 1.79 m/s, 289° | - | - |
| 1778013265 | 30° C | 60% | 1004.3 hPa | 0 mm | 2.24 m/s, 315° | - | - |
| 1778012961 | 31.11° C | 59% | 1004.4 hPa | 0 mm | 1.79 m/s, 298° | - | - |
| 1778012658 | 30° C | 61% | 1004.5 hPa | 0 mm | 1.79 m/s, 287° | - | - |
| 1778012354 | 30° C | 60% | 1004.5 hPa | 0 mm | 2.24 m/s, 323° | - | - |
| 1778012051 | 30° C | 60% | 1004.7 hPa | 0 mm | 2.68 m/s, 180° | - | - |
| 1778011750 | 30° C | 60% | 1004.5 hPa | 0 mm | 3.13 m/s, 275° | - | - |
| 1778011446 | 29.44° C | 60% | 1004.7 hPa | 0 mm | 2.24 m/s, 245° | - | - |
| 1778011142 | 30° C | 60% | 1004.5 hPa | 0 mm | 1.79 m/s, 311° | - | - |
| 1778010839 | 30.56° C | 59% | 1004.6 hPa | 0 mm | 1.34 m/s, 275° | - | - |
| 1778010536 | 30.56° C | 58% | 1004.5 hPa | 0 mm | 1.79 m/s, 340° | - | - |
| 1778010234 | 30° C | 60% | 1004.6 hPa | 0 mm | 0.89 m/s, 320° | - | - |
| 1778009934 | 30° C | 58% | 1004.6 hPa | 0 mm | 2.68 m/s, 171° | - | - |
| 1778009633 | 30° C | 59% | 1004.7 hPa | 0 mm | 1.79 m/s, 255° | - | - |
| 1778009330 | 29.44° C | 58% | 1004.6 hPa | 0 mm | 2.68 m/s, 70° | - | - |
| 1778009028 | 30.56° C | 55% | 1004.7 hPa | 0 mm | 3.58 m/s, 195° | - | - |
| 1778008725 | 30° C | 58% | 1004.6 hPa | 0 mm | 0.89 m/s, 271° | - | - |
| 1778008424 | 30° C | 57% | 1004.2 hPa | 0 mm | 3.13 m/s, 219° | - | - |
| 1778008120 | 29.44° C | 58% | 1004.3 hPa | 0 mm | 2.24 m/s, 344° | - | - |
| 1778007816 | 30° C | 60% | 1004.4 hPa | 0 mm | 1.79 m/s, 290° | - | - |
| 1778007511 | 29.44° C | 60% | 1004.3 hPa | 0 mm | 2.24 m/s, 324° | - | - |
| 1778007208 | 29.44° C | 60% | 1004.5 hPa | 0 mm | 2.24 m/s, 222° | - | - |
| 1778006904 | 28.89° C | 61% | 1004.5 hPa | 0 mm | 1.79 m/s, 306° | - | - |
| 1778006601 | 28.89° C | 61% | 1004.4 hPa | 0 mm | 4.02 m/s, 301° | - | - |
* Rain latest hour (hover to see other rain measurements)
** Current wind speed in m/s (hover to see current wind gust speed)